createdAt,value
2023-02-27T16:15:01.219Z,33.3
2023-02-27T16:35:01.797Z,103.6
2023-02-27T16:40:01.817Z,118.6
2023-02-27T16:45:01.746Z,122.1
2023-02-27T16:50:01.682Z,125.2
2023-02-27T16:55:01.759Z,124.3
2023-02-27T17:00:01.716Z,131.5
2023-02-27T17:05:01.883Z,129.9
2023-02-27T17:10:01.681Z,127.0
2023-02-27T17:15:01.817Z,125.2
2023-02-27T17:20:01.659Z,102.0
2023-02-27T17:25:01.731Z,100.8
2023-02-27T17:30:01.834Z,98.6
2023-02-27T17:35:01.833Z,97.0
2023-02-27T17:40:01.672Z,93.6
2023-02-27T17:45:01.781Z,118.2
2023-02-27T17:50:01.655Z,112.4
2023-02-27T17:55:01.842Z,111.4
2023-02-27T18:00:02.688Z,115.4
2023-02-27T18:05:01.763Z,94.7
2023-02-27T18:10:02.077Z,89.6
2023-02-27T18:15:01.850Z,85.9
2023-02-27T18:20:06.647Z,77.8
2023-02-27T18:25:01.755Z,67.0
2023-02-27T18:30:01.750Z,77.8
2023-02-27T18:35:02.036Z,70.4
2023-02-27T18:40:01.615Z,69.0
2023-02-27T18:45:01.818Z,69.8
2023-02-27T18:50:02.706Z,59.8
2023-02-27T18:55:01.871Z,64.5
2023-02-27T19:00:01.604Z,65.8
2023-02-27T19:05:01.792Z,63.9
2023-02-27T19:10:01.609Z,64.6
2023-02-27T19:15:02.147Z,73.8
2023-02-27T19:20:01.975Z,75.4
2023-02-27T19:25:01.721Z,86.7
2023-02-27T19:30:01.642Z,108.8
2023-02-27T19:35:01.800Z,118.2
2023-02-27T19:40:01.618Z,134.1
2023-02-27T19:45:02.296Z,142.6
2023-02-27T19:50:06.326Z,149.2
2023-02-27T19:55:01.709Z,145.8
2023-02-27T20:00:01.580Z,180.0
2023-02-27T20:05:01.698Z,182.3
2023-02-27T20:10:01.618Z,183.4
2023-02-27T20:15:06.643Z,181.5
2023-02-27T20:20:01.553Z,181.4
2023-02-27T20:25:01.728Z,167.8
2023-02-27T20:30:01.581Z,180.6
2023-02-27T20:35:01.669Z,176.3
2023-02-27T20:40:01.610Z,174.5
2023-02-27T20:45:01.670Z,204.7
2023-02-27T20:50:01.558Z,186.0
2023-02-27T20:55:01.643Z,175.8
2023-02-27T21:00:01.539Z,189.6
2023-02-27T21:05:02.136Z,196.4
2023-02-27T21:10:01.560Z,167.4
2023-02-27T21:15:01.611Z,170.4
2023-02-27T21:20:01.567Z,168.4
2023-02-27T21:25:01.656Z,168.0
2023-02-27T21:30:01.912Z,145.9
2023-02-27T21:35:01.642Z,159.5
2023-02-27T21:40:01.536Z,158.2
2023-02-27T21:45:01.575Z,156.6
2023-02-27T21:50:01.583Z,152.6
2023-02-27T21:55:01.667Z,150.9
2023-02-27T22:00:01.539Z,106.3
2023-02-27T22:05:03.081Z,96.5
2023-02-27T22:10:01.560Z,89.0
2023-02-27T22:15:01.610Z,71.6
2023-02-27T22:20:01.531Z,70.4
2023-02-27T22:25:01.588Z,79.7
2023-02-27T22:30:01.499Z,67.1
2023-02-27T22:35:01.582Z,53.2
2023-02-27T22:40:01.818Z,43.1
2023-02-27T22:45:01.594Z,37.2
2023-02-27T22:50:01.529Z,30.9
2023-02-27T22:55:01.548Z,28.4
2023-02-27T23:00:01.460Z,23.9
2023-02-27T23:05:06.892Z,20.8
2023-02-27T23:10:01.469Z,22.4
2023-02-27T23:15:01.528Z,28.4
2023-02-27T23:20:06.455Z,41.0
2023-02-27T23:25:01.600Z,36.5
2023-02-27T23:30:01.441Z,48.1
2023-02-27T23:35:01.559Z,53.0
2023-02-27T23:40:01.438Z,58.0
2023-02-27T23:45:01.521Z,56.7
2023-02-27T23:50:01.805Z,70.8
2023-02-27T23:55:01.599Z,87.6
